Time;durP1;ratioP1;P1;durP2;ratioP2;P2;SDS_P1;SDS_P2;PMS_P1;PMS_P2;Temp;Humidity;BMP_temperature;BMP_pressure;BME280_temperature;BME280_humidity;BME280_pressure;Samples;Min_cycle;Max_cycle;Signal;HPM_P1;HPM_P2
2021/08/12 00:01:41;;;;;;;8.00;5.60;;;;;;;12.85;80.79;100885.11;93708;1203;99327;-59
2021/08/12 00:03:49;;;;;;;6.90;5.40;;;;;;;12.82;81.00;100884.00;93729;1203;88417;-60
2021/08/12 00:05:57;;;;;;;6.60;6.00;;;;;;;12.81;81.05;100886.53;93709;1203;93015;-64
2021/08/12 00:08:06;;;;;;;7.60;6.80;;;;;;;12.82;81.05;100888.38;93726;1203;79621;-65
2021/08/12 00:10:14;;;;;;;7.30;6.20;;;;;;;12.78;81.06;100889.33;93756;1195;80871;-64
2021/08/12 00:12:22;;;;;;;9.30;6.60;;;;;;;12.75;80.93;100889.55;93742;1203;98357;-63
2021/08/12 00:14:29;;;;;;;8.10;7.30;;;;;;;12.77;80.94;100892.10;93720;1196;87318;-62
2021/08/12 00:16:37;;;;;;;7.90;7.10;;;;;;;12.74;80.98;100890.59;93724;1203;94359;-58
2021/08/12 00:18:45;;;;;;;8.50;6.60;;;;;;;12.73;81.04;100891.73;93731;1203;80373;-59
2021/08/12 00:20:52;;;;;;;7.70;6.80;;;;;;;12.72;80.97;100889.23;93762;1203;81329;-59
2021/08/12 00:23:03;;;;;;;9.20;7.20;;;;;;;12.72;81.01;100887.46;93736;1203;97923;-59
2021/08/12 00:25:12;;;;;;;7.40;6.60;;;;;;;12.71;81.03;100889.42;93745;1203;86868;-59
2021/08/12 00:27:19;;;;;;;7.20;6.20;;;;;;;12.70;81.06;100890.28;93690;1203;94329;-59
2021/08/12 00:29:27;;;;;;;6.70;5.30;;;;;;;12.68;81.02;100887.22;93737;1203;80318;-59
2021/08/12 00:31:36;;;;;;;6.40;5.70;;;;;;;12.68;81.13;100890.38;93742;1203;81785;-59
2021/08/12 00:33:43;;;;;;;6.00;5.30;;;;;;;12.66;81.09;100894.20;93723;1203;99986;-59
2021/08/12 00:35:54;;;;;;;8.30;6.10;;;;;;;12.64;81.23;100895.20;93776;1203;89118;-59
2021/08/12 00:38:01;;;;;;;6.70;5.90;;;;;;;12.60;81.32;100895.71;93717;1203;93950;-59
2021/08/12 00:40:12;;;;;;;6.20;5.50;;;;;;;12.60;81.31;100896.93;93694;1203;80270;-64
2021/08/12 00:42:19;;;;;;;5.90;5.10;;;;;;;12.61;81.21;100892.85;93775;1203;81097;-64
2021/08/12 00:44:27;;;;;;;6.10;4.70;;;;;;;12.61;81.18;100895.23;93747;1203;97291;-63
2021/08/12 00:46:35;;;;;;;6.50;4.90;;;;;;;12.58;81.21;100893.23;93752;1203;87873;-60
2021/08/12 00:48:43;;;;;;;6.10;4.90;;;;;;;12.54;81.35;100890.23;93722;1203;94303;-59
2021/08/12 00:50:50;;;;;;;6.60;5.40;;;;;;;12.51;81.34;100891.75;93728;1203;81365;-59
2021/08/12 00:52:58;;;;;;;6.60;5.00;;;;;;;12.49;81.37;100894.11;93767;1203;81578;-59
2021/08/12 00:55:08;;;;;;;7.10;5.30;;;;;;;12.47;81.42;100898.05;93719;1203;98614;-63
2021/08/12 00:57:19;;;;;;;7.70;5.00;;;;;;;12.48;81.53;100896.40;93799;1196;85314;-64
2021/08/12 00:59:29;;;;;;;7.20;5.20;;;;;;;12.48;81.56;100897.59;93718;1203;92968;-64
2021/08/12 01:01:36;;;;;;;5.80;4.70;;;;;;;12.46;81.54;100896.67;93727;1203;79830;-64
2021/08/12 01:03:44;;;;;;;6.90;5.00;;;;;;;12.43;81.46;100897.72;93739;1203;81718;-63
2021/08/12 01:05:54;;;;;;;8.70;5.20;;;;;;;12.43;81.61;100899.55;93758;1203;99022;-63
2021/08/12 01:08:12;;;;;;;6.80;4.40;;;;;;;12.42;81.55;100902.98;93731;1203;87523;-63
2021/08/12 01:10:27;;;;;;;8.30;4.80;;;;;;;12.40;81.65;100899.21;93722;1203;95712;-63
2021/08/12 01:12:46;;;;;;;5.70;4.50;;;;;;;12.40;81.75;100904.22;93710;1203;80062;-64
2021/08/12 01:15:03;;;;;;;6.20;4.80;;;;;;;12.38;81.72;100903.44;93773;1203;81700;-63
2021/08/12 01:17:15;;;;;;;5.10;4.20;;;;;;;12.34;81.78;100904.43;93699;1203;99477;-64
2021/08/12 01:20:24;;;;;;;7.20;4.70;;;;;;;12.32;81.81;100908.70;93770;1203;88194;-64
2021/08/12 01:22:41;;;;;;;6.50;4.60;;;;;;;12.29;81.86;100905.45;93754;1203;94062;-64
2021/08/12 01:24:53;;;;;;;7.30;4.60;;;;;;;12.30;81.88;100907.39;93749;1203;79216;-64
2021/08/12 01:27:07;;;;;;;7.10;5.20;;;;;;;12.30;81.83;100909.10;93763;1203;80431;-64
2021/08/12 01:29:20;;;;;;;;;;;;;;;12.30;81.96;100908.17;93714;1203;99670;-64
2021/08/12 01:31:58;;;;;;;7.80;4.90;;;;;;;12.29;82.01;100907.48;93735;1203;88286;-64
2021/08/12 01:34:16;;;;;;;5.50;4.50;;;;;;;12.30;82.07;100906.02;93743;1203;94079;-64
2021/08/12 01:36:28;;;;;;;6.90;4.40;;;;;;;12.30;82.05;100907.71;93709;1190;78236;-65
2021/08/12 01:38:39;;;;;;;5.90;4.80;;;;;;;12.29;82.02;100910.87;93749;1203;80630;-64
2021/08/12 01:40:50;;;;;;;6.50;4.80;;;;;;;12.30;81.98;100915.88;93736;1196;99069;-59
2021/08/12 01:42:59;;;;;;;6.10;4.40;;;;;;;12.29;81.95;100917.06;93735;1203;87184;-59
2021/08/12 01:45:09;;;;;;;5.00;4.50;;;;;;;12.27;82.02;100917.49;93719;1203;93089;-58
2021/08/12 01:47:17;;;;;;;7.20;4.90;;;;;;;12.26;82.20;100919.20;93753;1203;79303;-59
2021/08/12 01:49:25;;;;;;;6.70;5.10;;;;;;;12.27;82.16;100921.14;93749;1203;81267;-59
2021/08/12 01:51:34;;;;;;;5.60;4.50;;;;;;;12.24;82.05;100920.20;93706;1203;98539;-64
2021/08/12 01:53:44;;;;;;;5.10;4.60;;;;;;;12.19;82.06;100922.20;93710;1203;87770;-64
2021/08/12 01:55:54;;;;;;;5.30;4.50;;;;;;;12.17;82.04;100925.02;93721;1203;94574;-59
2021/08/12 01:58:04;;;;;;;6.20;4.60;;;;;;;12.12;82.02;100924.55;93749;1203;77860;-59
2021/08/12 02:00:15;;;;;;;5.50;4.70;;;;;;;12.10;82.01;100925.32;93724;1203;81927;-64
2021/08/12 02:02:24;;;;;;;6.60;5.00;;;;;;;12.08;82.10;100927.28;93785;1196;99124;-65
2021/08/12 02:04:34;;;;;;;6.80;4.90;;;;;;;12.06;82.20;100934.53;93779;1203;86746;-64
2021/08/12 02:06:42;;;;;;;7.90;5.30;;;;;;;12.03;82.19;100933.62;93738;1203;94147;-59
2021/08/12 02:08:50;;;;;;;8.50;5.20;;;;;;;12.02;82.25;100932.89;93656;1204;81676;-59
2021/08/12 02:10:57;;;;;;;7.10;5.40;;;;;;;12.01;82.32;100930.12;93724;1203;81943;-64
2021/08/12 02:13:06;;;;;;;7.30;5.60;;;;;;;12.02;82.28;100930.98;93714;1203;98449;-64
2021/08/12 02:15:17;;;;;;;8.20;6.20;;;;;;;12.06;82.24;100932.73;93713;1196;86932;-64
2021/08/12 02:17:28;;;;;;;6.60;5.60;;;;;;;12.04;82.32;100933.71;93714;1203;94276;-64
2021/08/12 02:19:37;;;;;;;6.70;5.80;;;;;;;12.00;82.34;100933.49;93709;1203;80425;-64
2021/08/12 02:21:53;;;;;;;9.80;6.10;;;;;;;12.00;82.43;100932.75;93727;1203;82434;-59
2021/08/12 02:24:08;;;;;;;9.00;7.10;;;;;;;12.02;82.42;100933.80;93767;1203;98566;-59
2021/08/12 02:26:19;;;;;;;7.30;6.10;;;;;;;12.01;82.45;100933.13;93748;1203;88703;-64
2021/08/12 02:28:29;;;;;;;8.50;6.50;;;;;;;11.99;82.58;100936.06;93739;1196;93023;-64
2021/08/12 02:30:42;;;;;;;8.20;6.50;;;;;;;11.97;82.54;100941.03;93701;1203;81230;-64
2021/08/12 02:32:53;;;;;;;8.60;6.60;;;;;;;11.97;82.49;100939.38;93674;1204;81871;-64
2021/08/12 02:35:01;;;;;;;9.50;7.00;;;;;;;11.98;82.58;100941.50;93724;1203;99341;-64
2021/08/12 02:37:20;;;;;;;8.50;7.20;;;;;;;11.99;82.62;100938.94;93716;1203;87781;-64
2021/08/12 02:39:29;;;;;;;8.30;7.10;;;;;;;12.01;82.62;100941.38;93693;1203;93841;-64
2021/08/12 02:41:41;;;;;;;9.50;7.60;;;;;;;12.03;82.62;100945.03;93750;1203;80501;-59
2021/08/12 02:43:51;;;;;;;9.70;6.80;;;;;;;12.06;82.60;100942.25;93727;1203;81328;-60
2021/08/12 02:46:03;;;;;;;8.60;7.20;;;;;;;12.10;82.67;100943.02;93725;1203;97948;-64
2021/08/12 02:48:13;;;;;;;11.00;7.00;;;;;;;12.11;82.64;100944.06;93719;1203;88345;-64
2021/08/12 02:50:22;;;;;;;9.80;6.90;;;;;;;12.10;82.71;100945.39;93740;1204;94597;-64
2021/08/12 02:52:30;;;;;;;9.50;7.00;;;;;;;12.09;82.65;100945.00;93733;1189;80129;-65
2021/08/12 02:54:43;;;;;;;10.70;7.60;;;;;;;12.10;82.63;100946.18;93743;1196;81101;-62
2021/08/12 02:56:51;;;;;;;11.50;8.20;;;;;;;12.16;82.87;100946.81;93750;1203;98719;-58
2021/08/12 02:58:59;;;;;;;12.00;8.00;;;;;;;12.20;82.78;100945.20;93652;1204;86649;-59
2021/08/12 03:01:11;;;;;;;9.60;8.10;;;;;;;12.17;82.73;100941.28;93761;1203;93091;-59
2021/08/12 03:03:20;;;;;;;10.00;7.60;;;;;;;12.19;82.76;100945.65;93751;1203;81768;-59
2021/08/12 03:05:28;;;;;;;10.20;7.90;;;;;;;12.21;82.79;100945.80;93753;1203;82074;-65
2021/08/12 03:07:37;;;;;;;10.70;8.20;;;;;;;12.22;82.83;100947.27;93775;1203;99256;-64
2021/08/12 03:09:48;;;;;;;10.20;7.90;;;;;;;12.22;82.81;100947.31;93741;1196;86450;-64
2021/08/12 03:11:59;;;;;;;11.00;8.20;;;;;;;12.18;82.67;100943.54;93747;1203;94120;-65
2021/08/12 03:14:07;;;;;;;8.90;7.40;;;;;;;12.16;82.66;100943.02;93687;1189;80557;-64
2021/08/12 03:16:15;;;;;;;9.80;7.10;;;;;;;12.14;82.63;100942.58;93706;1203;81451;-65
2021/08/12 03:18:23;;;;;;;9.30;7.90;;;;;;;12.12;82.74;100939.93;93760;1196;98458;-65
2021/08/12 03:20:34;;;;;;;9.60;8.30;;;;;;;12.17;82.76;100939.52;93759;1195;87053;-63
2021/08/12 03:22:48;;;;;;;13.50;8.20;;;;;;;12.19;82.72;100941.70;93718;1196;93263;-64
2021/08/12 03:24:56;;;;;;;9.50;7.50;;;;;;;12.18;82.75;100944.02;93714;1203;81273;-64
2021/08/12 03:27:11;;;;;;;9.30;7.70;;;;;;;12.16;82.63;100942.34;93726;1189;80526;-64
2021/08/12 03:29:18;;;;;;;9.40;7.50;;;;;;;12.15;82.65;100946.38;93704;1203;98481;-64
2021/08/12 03:31:26;;;;;;;10.20;7.90;;;;;;;12.17;82.86;100945.27;93758;1203;87723;-59
2021/08/12 03:33:37;;;;;;;9.70;8.30;;;;;;;12.20;82.83;100947.64;93769;1203;93219;-59
2021/08/12 03:35:47;;;;;;;9.50;7.80;;;;;;;12.25;82.87;100948.91;93717;1203;81514;-64
2021/08/12 03:37:55;;;;;;;10.90;8.30;;;;;;;12.29;82.92;100952.73;93749;1203;80874;-64
2021/08/12 03:40:08;;;;;;;12.80;9.10;;;;;;;12.33;82.92;100957.35;93739;1203;98098;-64
2021/08/12 03:42:15;;;;;;;9.70;8.40;;;;;;;12.36;82.88;100959.87;93750;1203;87416;-64
2021/08/12 03:44:23;;;;;;;11.00;9.30;;;;;;;12.37;82.93;100963.13;93719;1203;93886;-64
2021/08/12 03:46:31;;;;;;;9.30;8.30;;;;;;;12.38;82.99;100963.77;93763;1189;78188;-64
2021/08/12 03:48:38;;;;;;;9.70;8.30;;;;;;;12.41;82.98;100966.05;93763;1189;81056;-64
2021/08/12 03:50:46;;;;;;;11.60;8.80;;;;;;;12.46;82.92;100962.11;93732;1196;97028;-64
2021/08/12 03:52:57;;;;;;;9.90;8.40;;;;;;;12.55;82.97;100964.61;93708;1204;88451;-64
2021/08/12 03:55:05;;;;;;;10.20;8.40;;;;;;;12.63;82.88;100965.64;93728;1203;94256;-59
2021/08/12 03:57:16;;;;;;;10.50;9.00;;;;;;;12.64;82.92;100970.36;93741;1203;78327;-59
2021/08/12 03:59:24;;;;;;;10.30;8.80;;;;;;;12.65;82.88;100969.12;93785;1203;80789;-59
2021/08/12 04:01:32;;;;;;;10.00;8.90;;;;;;;12.70;82.94;100968.29;93728;1203;99138;-64
2021/08/12 04:03:39;;;;;;;9.30;8.40;;;;;;;12.86;82.93;100967.69;93732;1196;86811;-64
2021/08/12 04:05:47;;;;;;;11.80;8.40;;;;;;;12.96;82.82;100973.92;93759;1203;93479;-64
2021/08/12 04:07:54;;;;;;;9.00;8.00;;;;;;;13.44;83.48;100973.64;93705;1203;79620;-64
2021/08/12 04:10:02;;;;;;;12.20;8.70;;;;;;;14.67;83.58;100970.05;93750;1203;81697;-64
2021/08/12 04:12:11;;;;;;;10.40;8.20;;;;;;;15.97;82.83;100970.95;93720;1203;98043;-64
2021/08/12 04:14:18;;;;;;;9.30;7.50;;;;;;;16.54;81.16;100970.86;93800;1195;86897;-64
2021/08/12 04:16:29;;;;;;;10.80;8.00;;;;;;;16.23;80.13;100974.84;93800;1203;93858;-64
2021/08/12 04:18:36;;;;;;;9.70;8.70;;;;;;;15.79;79.83;100976.05;93718;1203;80064;-64
2021/08/12 04:20:44;;;;;;;9.70;8.70;;;;;;;15.50;79.81;100973.96;93741;1203;81300;-59
2021/08/12 04:22:52;;;;;;;9.60;8.60;;;;;;;15.22;79.95;100977.66;93714;1203;99323;-59
2021/08/12 04:24:59;;;;;;;9.80;8.30;;;;;;;15.01;79.96;100976.79;93733;1203;86875;-64
2021/08/12 04:27:08;;;;;;;11.00;8.50;;;;;;;14.89;79.97;100979.71;93697;1204;92600;-64
2021/08/12 04:29:15;;;;;;;10.00;8.30;;;;;;;14.84;80.04;100988.33;93735;1203;81073;-64
2021/08/12 04:31:23;;;;;;;11.30;8.70;;;;;;;14.81;80.09;100982.23;93782;1196;81076;-59
2021/08/12 04:33:34;;;;;;;9.10;8.10;;;;;;;14.81;80.22;100987.92;93724;1204;98443;-59
2021/08/12 04:35:41;;;;;;;10.20;8.90;;;;;;;14.83;80.31;100989.11;93744;1204;88204;-64
2021/08/12 04:37:49;;;;;;;9.00;8.10;;;;;;;14.87;80.39;100986.83;93756;1203;93356;-64
2021/08/12 04:39:56;;;;;;;11.90;8.70;;;;;;;14.95;80.36;100984.69;93702;1203;82035;-64
2021/08/12 04:42:04;;;;;;;12.40;8.30;;;;;;;15.25;80.86;100988.01;93722;1204;81279;-65
2021/08/12 04:44:12;;;;;;;10.50;7.90;;;;;;;16.44;81.01;100987.30;93781;1203;98233;-64
2021/08/12 04:46:22;;;;;;;11.30;8.40;;;;;;;18.03;79.99;100986.23;93724;1203;88294;-60
2021/08/12 04:48:30;;;;;;;9.60;7.90;;;;;;;19.56;78.29;100982.23;93742;1195;94055;-60
2021/08/12 04:50:38;;;;;;;10.30;7.50;;;;;;;20.91;76.69;100980.66;93719;1203;78780;-65
2021/08/12 04:52:45;;;;;;;8.00;6.80;;;;;;;22.10;74.81;100976.65;93786;1196;81119;-65
2021/08/12 04:54:53;;;;;;;7.60;6.80;;;;;;;23.01;72.74;100976.00;93731;1203;97340;-60
2021/08/12 04:57:01;;;;;;;8.50;7.00;;;;;;;23.72;70.65;100976.80;93731;1203;88238;-59
2021/08/12 04:59:08;;;;;;;6.70;6.00;;;;;;;24.36;68.66;100973.65;93704;1197;94357;-58
2021/08/12 05:01:20;;;;;;;6.90;6.10;;;;;;;24.96;67.10;100979.93;93708;1203;79164;-64
2021/08/12 05:03:28;;;;;;;7.40;6.60;;;;;;;25.45;65.06;100981.38;93739;1203;81646;-65
2021/08/12 05:05:36;;;;;;;6.30;5.70;;;;;;;25.97;63.50;100979.58;93753;1203;98151;-60
2021/08/12 05:07:47;;;;;;;8.00;6.10;;;;;;;26.47;61.73;100976.06;93763;1203;87420;-59
2021/08/12 05:09:54;;;;;;;8.20;6.70;;;;;;;26.88;60.31;100976.08;93693;1203;94462;-65
2021/08/12 05:12:02;;;;;;;6.20;5.60;;;;;;;27.20;58.95;100977.92;93730;1204;79699;-65
2021/08/12 05:14:09;;;;;;;7.30;5.80;;;;;;;27.65;57.52;100974.73;93716;1203;82824;-64
2021/08/12 05:16:17;;;;;;;9.50;5.90;;;;;;;27.92;56.51;100973.55;93719;1203;98119;-59
2021/08/12 05:18:25;;;;;;;6.50;5.50;;;;;;;28.27;55.37;100972.26;93734;1203;87569;-59
2021/08/12 05:20:35;;;;;;;6.40;5.30;;;;;;;28.67;54.27;100970.13;93732;1203;95300;-64
2021/08/12 05:22:43;;;;;;;6.20;5.20;;;;;;;29.15;53.36;100973.06;93783;1203;79927;-65
2021/08/12 05:24:53;;;;;;;6.90;5.20;;;;;;;29.44;52.18;100977.35;93725;1203;82945;-59
2021/08/12 05:27:01;;;;;;;5.50;4.90;;;;;;;29.82;51.09;100975.73;93725;1203;98254;-59
2021/08/12 05:29:08;;;;;;;7.70;5.00;;;;;;;29.98;50.10;100979.39;93773;1203;88953;-59
2021/08/12 05:31:16;;;;;;;6.90;4.60;;;;;;;30.17;49.38;100980.84;93703;1203;94615;-59
2021/08/12 05:33:27;;;;;;;6.70;5.20;;;;;;;30.54;48.57;100984.31;93760;1196;77803;-59
2021/08/12 05:35:35;;;;;;;6.80;4.80;;;;;;;30.91;47.68;100985.73;93739;1203;81953;-58
2021/08/12 05:37:43;;;;;;;7.10;5.30;;;;;;;30.91;46.90;100989.73;93713;1204;99325;-59
2021/08/12 05:39:50;;;;;;;7.40;4.70;;;;;;;31.00;46.45;100989.85;93701;1203;87636;-65
2021/08/12 05:41:58;;;;;;;6.00;4.80;;;;;;;31.10;45.42;100995.77;93736;1203;94548;-65
2021/08/12 05:44:06;;;;;;;5.40;4.20;;;;;;;31.24;44.83;100997.77;93735;1195;78260;-66
2021/08/12 05:46:13;;;;;;;6.10;4.60;;;;;;;31.37;44.92;101001.40;93804;1203;81372;-65
2021/08/12 05:48:24;;;;;;;6.30;4.30;;;;;;;31.51;43.78;101000.70;93790;1203;97783;-65
2021/08/12 05:50:32;;;;;;;5.80;4.20;;;;;;;31.58;43.68;101003.66;93736;1203;87995;-66
2021/08/12 05:52:40;;;;;;;7.90;4.20;;;;;;;32.01;43.31;101002.96;93715;1196;94510;-64
2021/08/12 05:54:48;;;;;;;6.80;4.90;;;;;;;32.18;42.67;101000.88;93764;1196;77932;-64
2021/08/12 05:56:55;;;;;;;8.70;4.60;;;;;;;32.23;42.61;100999.81;93725;1203;82091;-65
2021/08/12 05:59:03;;;;;;;8.10;3.80;;;;;;;32.32;42.20;100998.05;93730;1203;97971;-65
2021/08/12 06:01:10;;;;;;;6.70;4.10;;;;;;;32.20;41.76;101000.11;93716;1203;87134;-59
2021/08/12 06:03:18;;;;;;;6.60;3.70;;;;;;;31.96;41.40;101002.31;93716;1195;93839;-59
2021/08/12 06:05:25;;;;;;;6.30;4.10;;;;;;;31.05;41.36;101001.10;93754;1196;79238;-64
2021/08/12 06:07:33;;;;;;;6.60;3.90;;;;;;;29.70;42.31;101006.97;93739;1203;82761;-64
2021/08/12 06:09:41;;;;;;;6.60;3.90;;;;;;;28.77;43.55;101008.85;93721;1203;98110;-60
2021/08/12 06:11:52;;;;;;;4.70;3.40;;;;;;;28.78;44.07;101007.95;93712;1203;88490;-58
2021/08/12 06:14:00;;;;;;;4.10;3.40;;;;;;;28.57;44.22;101010.88;93724;1195;92828;-58
2021/08/12 06:16:10;;;;;;;4.60;3.40;;;;;;;27.93;44.49;101011.21;93748;1204;78386;-65
2021/08/12 06:18:19;;;;;;;6.30;3.30;;;;;;;27.20;45.40;101012.34;93787;1195;80155;-63
2021/08/12 06:20:30;;;;;;;3.30;2.80;;;;;;;26.55;46.62;101014.27;93738;1203;99038;-63
2021/08/12 06:22:38;;;;;;;3.60;2.70;;;;;;;25.77;47.23;101020.19;93711;1204;88332;-64
2021/08/12 06:24:45;;;;;;;5.00;3.40;;;;;;;25.07;48.33;101019.91;93722;1203;93347;-60
2021/08/12 06:26:53;;;;;;;4.50;3.20;;;;;;;24.56;49.12;101014.73;93771;1203;79463;-59
2021/08/12 06:29:01;;;;;;;4.90;3.30;;;;;;;24.38;49.97;101015.81;93759;1203;81829;-60
2021/08/12 06:31:09;;;;;;;4.10;2.70;;;;;;;24.19;50.44;101018.10;93720;1203;100019;-64
2021/08/12 06:33:17;;;;;;;4.30;2.90;;;;;;;24.13;50.92;101017.28;93734;1203;87313;-64
2021/08/12 06:35:27;;;;;;;4.40;2.70;;;;;;;23.91;51.35;101020.92;93775;1203;95438;-59
2021/08/12 06:37:43;;;;;;;3.60;2.60;;;;;;;23.70;52.03;101019.27;93776;1204;79338;-60
2021/08/12 06:39:50;;;;;;;5.20;2.60;;;;;;;23.80;52.46;101020.16;93776;1195;80940;-66
2021/08/12 06:41:58;;;;;;;3.80;2.80;;;;;;;24.51;52.66;101021.23;93727;1203;98520;-67
2021/08/12 06:44:06;;;;;;;4.60;2.70;;;;;;;25.34;52.23;101027.48;93736;1203;88439;-66
2021/08/12 06:46:14;;;;;;;4.20;2.40;;;;;;;25.35;51.64;101023.99;93723;1203;94024;-66
2021/08/12 06:48:24;;;;;;;4.20;2.50;;;;;;;25.18;51.74;101021.06;93716;1203;80020;-66
2021/08/12 06:50:33;;;;;;;4.10;2.40;;;;;;;24.99;51.70;101022.69;93730;1203;81329;-60
2021/08/12 06:52:41;;;;;;;5.30;2.40;;;;;;;24.96;52.05;101021.56;93792;1203;96964;-60
2021/08/12 06:54:48;;;;;;;3.30;2.10;;;;;;;24.74;52.09;101020.15;93770;1196;87023;-61
2021/08/12 06:56:56;;;;;;;5.30;2.00;;;;;;;24.35;52.10;101019.60;93748;1203;93107;-60
2021/08/12 06:59:03;;;;;;;5.30;2.80;;;;;;;24.03;52.43;101022.82;93757;1203;79796;-60
2021/08/12 07:01:14;;;;;;;3.90;2.40;;;;;;;23.56;52.53;101021.61;93753;1203;81408;-67
2021/08/12 07:03:21;;;;;;;5.00;2.50;;;;;;;23.27;53.07;101029.70;93703;1203;97161;-65
2021/08/12 07:05:29;;;;;;;6.10;3.60;;;;;;;23.19;53.40;101026.84;93785;1203;86988;-65
2021/08/12 07:07:40;;;;;;;4.70;2.60;;;;;;;23.26;53.70;101031.17;93715;1203;93252;-66
2021/08/12 07:09:48;;;;;;;4.20;2.30;;;;;;;23.31;54.00;101031.67;93714;1189;77753;-61
2021/08/12 07:11:55;;;;;;;4.80;2.50;;;;;;;23.24;54.38;101032.36;93770;1204;82710;-61
2021/08/12 07:14:03;;;;;;;3.00;2.10;;;;;;;23.42;54.37;101030.22;93711;1205;100120;-61
2021/08/12 07:16:14;;;;;;;4.80;2.60;;;;;;;23.75;53.97;101029.43;93776;1203;87601;-61
2021/08/12 07:18:24;;;;;;;3.50;2.30;;;;;;;24.61;53.56;101030.05;93742;1203;93258;-61
2021/08/12 07:20:35;;;;;;;4.60;2.70;;;;;;;25.94;52.09;101036.22;93727;1189;78363;-61
2021/08/12 07:22:46;;;;;;;15.60;12.70;;;;;;;26.70;50.95;101028.19;93715;1203;81923;-62
2021/08/12 07:24:53;;;;;;;5.40;3.50;;;;;;;27.12;50.11;101031.06;93717;1203;98411;-66
2021/08/12 07:27:01;;;;;;;8.20;7.20;;;;;;;27.18;49.51;101037.65;93759;1203;86817;-66
2021/08/12 07:29:09;;;;;;;4.00;2.80;;;;;;;27.66;49.33;101037.09;93740;1204;94163;-66
2021/08/12 07:31:20;;;;;;;5.90;3.40;;;;;;;28.56;48.22;101037.13;93751;1195;78978;-61
2021/08/12 07:33:28;;;;;;;6.60;2.30;;;;;;;29.47;47.11;101037.34;93745;1204;80677;-61
2021/08/12 07:35:35;;;;;;;3.00;2.30;;;;;;;29.99;45.91;101035.48;93736;1203;98803;-61
2021/08/12 07:37:43;;;;;;;4.60;2.20;;;;;;;30.73;45.45;101036.15;93747;1203;87030;-61
2021/08/12 07:39:51;;;;;;;4.80;2.40;;;;;;;31.59;44.20;101032.69;93733;1203;94818;-61
2021/08/12 07:41:58;;;;;;;5.20;2.70;;;;;;;32.04;43.19;101034.66;93716;1203;78970;-61
2021/08/12 07:44:09;;;;;;;5.40;2.70;;;;;;;32.65;42.41;101036.80;93784;1203;80919;-61
2021/08/12 07:46:17;;;;;;;5.00;2.60;;;;;;;33.08;41.57;101036.96;93737;1203;99360;-61
2021/08/12 07:48:25;;;;;;;4.00;2.50;;;;;;;33.36;40.43;101035.43;93757;1203;87288;-61
2021/08/12 07:50:32;;;;;;;4.30;2.20;;;;;;;33.48;39.43;101036.38;93742;1203;94242;-66
2021/08/12 07:52:44;;;;;;;5.10;2.80;;;;;;;33.78;39.09;101042.95;93729;1189;78948;-67
2021/08/12 07:54:51;;;;;;;4.40;3.30;;;;;;;34.21;38.36;101042.04;93764;1204;82436;-66
2021/08/12 07:57:02;;;;;;;6.70;3.10;;;;;;;34.38;37.92;101039.73;93713;1203;97518;-67
2021/08/12 07:59:09;;;;;;;5.90;2.70;;;;;;;34.43;37.13;101038.75;93751;1203;87834;-68
2021/08/12 08:01:19;;;;;;;4.70;2.40;;;;;;;34.54;36.61;101032.77;93717;1203;93005;-68
2021/08/12 08:03:27;;;;;;;3.50;2.60;;;;;;;34.48;36.42;101036.55;93736;1204;78493;-68
2021/08/12 08:05:35;;;;;;;3.80;2.70;;;;;;;34.68;35.98;101036.46;93738;1203;80252;-62
2021/08/12 08:07:43;;;;;;;3.30;2.60;;;;;;;34.86;36.13;101036.11;93737;1203;99465;-62
2021/08/12 08:09:51;;;;;;;4.50;2.80;;;;;;;35.18;35.47;101040.04;93712;1203;88851;-62
2021/08/12 08:11:58;;;;;;;5.20;2.50;;;;;;;35.19;34.50;101037.35;93710;1204;94202;-62
2021/08/12 08:14:08;;;;;;;3.30;2.40;;;;;;;34.94;34.78;101038.37;93703;1203;80060;-61
2021/08/12 08:16:16;;;;;;;3.50;2.70;;;;;;;35.02;34.70;101041.52;93775;1203;81806;-62
2021/08/12 08:18:24;;;;;;;2.50;2.20;;;;;;;35.35;34.41;101039.38;93741;1203;96859;-61
2021/08/12 08:20:34;;;;;;;3.40;2.30;;;;;;;35.41;34.04;101041.16;93745;1203;87589;-67
2021/08/12 08:22:43;;;;;;;4.40;2.10;;;;;;;35.49;34.07;101039.73;93716;1203;94070;-69
2021/08/12 08:24:50;;;;;;;3.00;2.40;;;;;;;35.64;33.67;101046.20;93723;1203;77959;-66
2021/08/12 08:27:01;;;;;;;4.00;2.40;;;;;;;35.61;33.52;101042.55;93730;1195;81890;-67
2021/08/12 08:29:09;;;;;;;3.50;2.50;;;;;;;35.78;33.25;101040.46;93783;1203;99152;-59
2021/08/12 08:31:20;;;;;;;3.30;2.00;;;;;;;36.08;33.24;101041.01;93761;1203;86052;-66
2021/08/12 08:33:27;;;;;;;2.60;2.10;;;;;;;36.14;32.87;101036.67;93729;1203;93850;-66
2021/08/12 08:35:35;;;;;;;4.30;2.40;;;;;;;36.17;32.60;101043.94;93723;1203;78804;-59
2021/08/12 08:37:42;;;;;;;4.80;2.50;;;;;;;36.05;32.30;101048.61;93744;1195;81432;-59
2021/08/12 08:39:53;;;;;;;5.00;2.30;;;;;;;35.68;32.35;101046.52;93731;1203;98362;-60
2021/08/12 08:42:02;;;;;;;5.70;2.10;;;;;;;35.48;32.41;101049.06;93774;1203;87064;-67
2021/08/12 08:44:11;;;;;;;3.30;2.50;;;;;;;34.80;32.89;101051.84;93727;1195;93986;-67
2021/08/12 08:46:20;;;;;;;3.60;2.50;;;;;;;34.92;32.99;101048.49;93732;1203;79220;-60
2021/08/12 08:48:31;;;;;;;3.10;2.40;;;;;;;34.51;33.34;101050.61;93743;1203;80977;-60
2021/08/12 08:50:42;;;;;;;4.40;2.40;;;;;;;34.70;34.33;101052.81;93747;1199;97955;-60
2021/08/12 08:52:53;;;;;;;3.90;2.70;;;;;;;34.90;33.03;101049.45;93729;1196;88261;-59
2021/08/12 08:55:01;;;;;;;4.80;2.40;;;;;;;33.89;32.95;101047.21;93731;1196;93062;-60
2021/08/12 08:57:11;;;;;;;3.80;2.30;;;;;;;33.64;33.54;101052.73;93720;1203;79065;-59
2021/08/12 08:59:19;;;;;;;2.50;2.00;;;;;;;33.43;33.81;101044.55;93730;1203;81820;-59
2021/08/12 09:01:30;;;;;;;2.80;2.20;;;;;;;33.59;33.93;101047.17;93722;1203;98316;-67
2021/08/12 09:03:38;;;;;;;2.80;2.10;;;;;;;33.60;33.75;101047.63;93757;1203;87703;-67
2021/08/12 09:05:46;;;;;;;4.10;2.40;;;;;;;33.00;33.68;101049.20;93757;1196;93070;-60
2021/08/12 09:08:00;;;;;;;3.00;2.30;;;;;;;33.16;34.31;101043.71;93729;1203;79701;-60
2021/08/12 09:10:11;;;;;;;3.60;2.10;;;;;;;33.37;34.06;101043.34;93777;1203;80971;-67
2021/08/12 09:12:19;;;;;;;5.60;2.60;;;;;;;33.15;34.16;101043.64;93731;1203;98159;-67
2021/08/12 09:14:40;;;;;;;7.50;2.70;;;;;;;32.93;34.27;101043.38;93729;1195;87771;-67
2021/08/12 09:16:51;;;;;;;3.90;2.50;;;;;;;32.03;34.98;101051.56;93727;1203;94610;-60
2021/08/12 09:19:20;;;;;;;5.10;2.60;;;;;;;30.76;35.11;101060.04;93686;1196;77799;-59
2021/08/12 09:21:28;;;;;;;3.50;2.40;;;;;;;30.37;36.67;101063.52;93757;1205;80231;-64
2021/08/12 09:23:35;;;;;;;4.40;2.30;;;;;;;30.80;37.34;101062.39;93747;1203;97909;-63
2021/08/12 09:25:48;;;;;;;5.00;2.30;;;;;;;31.55;37.68;101061.75;93754;1203;87293;-65
2021/08/12 09:28:20;;;;;;;4.70;2.50;;;;;;;32.01;36.16;101062.91;93790;1203;94058;-65
2021/08/12 09:30:33;;;;;;;3.60;2.40;;;;;;;32.02;35.70;101065.74;93693;1203;79749;-64
2021/08/12 09:32:50;;;;;;;3.60;2.50;;;;;;;32.23;35.76;101068.55;93791;1203;81769;-65
2021/08/12 09:35:02;;;;;;;3.40;2.30;;;;;;;31.83;35.43;101069.63;93762;1203;99842;-58
2021/08/12 09:37:13;;;;;;;7.10;2.90;;;;;;;31.48;36.03;101068.63;93746;1203;88197;-59
2021/08/12 09:39:26;;;;;;;3.10;2.30;;;;;;;31.50;36.45;101064.29;93683;1204;94350;-58
2021/08/12 09:41:46;;;;;;;3.10;2.20;;;;;;;31.47;36.86;101058.15;93750;1204;78304;-66
2021/08/12 09:43:56;;;;;;;2.50;2.10;;;;;;;31.02;36.37;101060.40;93755;1196;80629;-65
2021/08/12 09:46:07;;;;;;;2.80;2.00;;;;;;;30.76;37.15;101057.05;93781;1203;98981;-67
2021/08/12 09:48:19;;;;;;;4.10;2.30;;;;;;;30.61;37.75;101054.96;93737;1196;88659;-66
2021/08/12 09:50:34;;;;;;;3.80;3.00;;;;;;;30.32;37.72;101055.90;93739;1204;93169;-66
2021/08/12 09:52:50;;;;;;;4.60;2.40;;;;;;;29.93;38.21;101062.41;93727;1203;79078;-69
2021/08/12 09:55:08;;;;;;;2.60;2.30;;;;;;;29.93;38.65;101064.34;93726;1196;81015;-62
2021/08/12 09:57:21;;;;;;;3.40;2.30;;;;;;;29.97;39.13;101063.38;93808;1203;98394;-61
2021/08/12 09:59:30;;;;;;;;;;;;;;;29.81;39.04;101064.77;93760;1204;87692;-62
2021/08/12 10:01:39;;;;;;;3.50;2.50;;;;;;;29.70;39.15;101066.59;93691;1196;92876;-61
2021/08/12 10:03:49;;;;;;;4.00;2.10;;;;;;;29.56;39.05;101063.02;93709;1203;79221;-61